createdAt,value
2018-05-17T00:00:40.111Z,97.30
2018-05-17T00:03:09.142Z,97.70
2018-05-17T00:05:42.005Z,98.10
2018-05-17T00:08:10.790Z,97.80
2018-05-17T00:10:43.635Z,97.90
2018-05-17T00:13:12.424Z,97.90
2018-05-17T00:15:48.982Z,97.10
2018-05-17T00:18:17.993Z,97.20
2018-05-17T00:20:50.166Z,96.90
2018-05-17T00:23:18.878Z,97.40
2018-05-17T00:25:52.408Z,97.50
2018-05-17T00:28:21.949Z,97.10
2018-05-17T00:30:58.813Z,97.10
2018-05-17T00:33:27.796Z,96.80
2018-05-17T00:35:58.010Z,97.00
2018-05-17T00:38:27.526Z,97.00
2018-05-17T00:41:00.626Z,97.00
2018-05-17T00:43:29.322Z,97.70
2018-05-17T00:46:05.358Z,97.80
2018-05-17T00:48:34.301Z,98.20
2018-05-17T00:51:06.985Z,97.90
2018-05-17T00:53:35.730Z,98.10
2018-05-17T00:56:09.598Z,97.90
2018-05-17T00:58:39.093Z,97.90
2018-05-17T01:01:12.044Z,97.90
2018-05-17T01:03:40.763Z,97.90
2018-05-17T01:06:17.225Z,97.80
2018-05-17T01:08:45.984Z,97.90
2018-05-17T01:11:16.352Z,97.70
2018-05-17T01:13:45.831Z,97.10
2018-05-17T01:16:18.626Z,97.10
2018-05-17T01:18:48.135Z,97.10
2018-05-17T01:21:24.692Z,97.10
2018-05-17T01:23:53.644Z,97.20
2018-05-17T01:26:25.469Z,97.20
2018-05-17T01:28:54.974Z,97.10
2018-05-17T01:31:28.017Z,96.90
2018-05-17T01:33:56.948Z,96.90
2018-05-17T01:36:29.154Z,96.40
2018-05-17T01:38:57.945Z,96.40
2018-05-17T01:41:33.828Z,96.60
2018-05-17T01:44:02.844Z,96.90
2018-05-17T01:46:33.635Z,96.90
2018-05-17T01:49:02.402Z,96.90
2018-05-17T01:51:34.251Z,96.80
2018-05-17T01:54:03.015Z,97.00
2018-05-17T01:56:36.168Z,96.30
2018-05-17T01:59:05.302Z,96.20
2018-05-17T02:01:41.996Z,96.20
2018-05-17T02:04:11.246Z,96.20
2018-05-17T02:06:41.003Z,96.10
2018-05-17T02:09:09.801Z,95.90
2018-05-17T02:11:45.925Z,95.80
2018-05-17T02:14:15.805Z,96.00
2018-05-17T02:16:46.687Z,95.90
2018-05-17T02:19:17.044Z,96.10
2018-05-17T02:21:54.255Z,96.40
2018-05-17T02:24:22.971Z,96.40
2018-05-17T02:26:52.933Z,96.60
2018-05-17T02:29:21.745Z,96.70
2018-05-17T02:31:56.150Z,96.60
2018-05-17T02:34:25.808Z,96.00
2018-05-17T02:36:58.604Z,95.90
2018-05-17T02:39:28.609Z,95.80
2018-05-17T02:42:01.119Z,95.90
2018-05-17T02:44:29.879Z,96.10
2018-05-17T02:47:06.006Z,96.20
2018-05-17T02:49:35.441Z,96.20
2018-05-17T02:52:07.616Z,96.20
2018-05-17T02:54:36.342Z,96.70
2018-05-17T02:57:10.043Z,96.20
2018-05-17T02:59:39.027Z,96.80
2018-05-17T03:02:15.369Z,96.20
2018-05-17T03:04:44.130Z,96.20
2018-05-17T03:07:16.072Z,95.90
2018-05-17T03:09:45.561Z,96.10
2018-05-17T03:12:18.164Z,96.10
2018-05-17T03:14:47.949Z,96.40
2018-05-17T03:17:20.629Z,96.40
2018-05-17T03:19:49.569Z,96.60
2018-05-17T03:22:25.830Z,96.70
2018-05-17T03:24:54.586Z,96.50
2018-05-17T03:27:24.425Z,96.60
2018-05-17T03:29:54.111Z,96.70
2018-05-17T03:32:26.982Z,96.70
2018-05-17T03:34:55.716Z,96.70
2018-05-17T03:37:28.450Z,96.40
2018-05-17T03:39:58.434Z,95.60
2018-05-17T03:42:34.689Z,95.60
2018-05-17T03:45:03.436Z,95.40
2018-05-17T03:47:32.937Z,95.30
2018-05-17T03:50:02.449Z,95.30
2018-05-17T03:52:35.280Z,95.30
2018-05-17T03:55:04.380Z,95.50
2018-05-17T03:57:40.170Z,94.60
2018-05-17T04:00:09.040Z,94.60
2018-05-17T04:06:00.562Z,95.10
2018-05-17T04:08:29.261Z,95.10
2018-05-17T04:10:58.750Z,95.10
2018-05-17T04:13:27.796Z,95.10
2018-05-17T04:15:56.536Z,95.50
2018-05-17T04:18:25.248Z,95.40
2018-05-17T04:20:54.387Z,95.50
2018-05-17T04:23:23.179Z,95.60
2018-05-17T04:25:51.927Z,95.50
2018-05-17T04:28:22.069Z,95.20
2018-05-17T04:30:53.962Z,96.00
2018-05-17T04:33:22.814Z,95.80
2018-05-17T04:35:59.539Z,95.60
2018-05-17T04:38:28.274Z,95.30
2018-05-17T04:41:00.246Z,95.60
2018-05-17T04:43:29.025Z,95.50
2018-05-17T04:46:06.002Z,94.80
2018-05-17T04:48:34.801Z,95.20
2018-05-17T04:51:05.552Z,95.20
2018-05-17T04:53:34.551Z,95.50
2018-05-17T04:56:10.639Z,95.50
2018-05-17T04:58:40.129Z,95.30
2018-05-17T05:01:11.388Z,95.70
2018-05-17T05:03:40.948Z,95.50
2018-05-17T05:06:13.783Z,95.50
2018-05-17T05:08:42.809Z,95.20
2018-05-17T05:11:15.454Z,95.40
2018-05-17T05:13:44.945Z,95.00
2018-05-17T05:16:17.940Z,95.60
2018-05-17T05:18:47.425Z,95.00
2018-05-17T05:21:20.210Z,95.00
2018-05-17T05:23:50.066Z,94.80
2018-05-17T05:26:22.661Z,94.80
2018-05-17T05:28:51.489Z,94.70
2018-05-17T05:31:24.698Z,94.70
2018-05-17T05:33:54.202Z,94.80
2018-05-17T05:36:27.067Z,94.40
2018-05-17T05:38:56.972Z,95.30
2018-05-17T05:41:29.730Z,95.10
2018-05-17T05:43:58.549Z,95.10
2018-05-17T05:46:35.480Z,94.60
2018-05-17T05:49:04.353Z,95.10
2018-05-17T05:51:33.160Z,94.80
2018-05-17T05:54:02.699Z,95.10
2018-05-17T05:56:35.841Z,95.10
2018-05-17T05:59:04.649Z,94.70
2018-05-17T06:01:40.758Z,94.50
2018-05-17T06:04:10.350Z,94.30
2018-05-17T06:06:39.966Z,94.10
2018-05-17T06:09:09.882Z,93.80
2018-05-17T06:11:45.866Z,93.80
2018-05-17T06:14:14.647Z,94.10
2018-05-17T06:16:45.180Z,94.00
2018-05-17T06:19:13.948Z,93.90
2018-05-17T06:21:50.320Z,94.10
2018-05-17T06:24:19.061Z,93.80
2018-05-17T06:26:50.099Z,94.10
2018-05-17T06:29:19.255Z,95.30
2018-05-17T06:31:57.444Z,93.60
2018-05-17T06:34:27.987Z,93.50
2018-05-17T06:36:56.873Z,93.90
2018-05-17T06:39:25.685Z,93.40
2018-05-17T06:41:58.181Z,93.20
2018-05-17T06:44:27.303Z,93.70
2018-05-17T06:47:01.066Z,93.50
2018-05-17T06:49:29.868Z,93.50
2018-05-17T06:52:06.410Z,93.10
2018-05-17T06:54:35.426Z,93.20
2018-05-17T06:57:06.203Z,93.70
2018-05-17T06:59:35.071Z,93.40
2018-05-17T07:02:11.670Z,94.20
2018-05-17T07:04:41.239Z,94.20
2018-05-17T07:07:13.866Z,94.20
2018-05-17T07:09:42.973Z,93.80
2018-05-17T07:12:15.192Z,93.40
2018-05-17T07:14:43.961Z,94.20
2018-05-17T07:17:20.095Z,93.80
2018-05-17T07:19:48.867Z,93.80
2018-05-17T07:22:18.361Z,92.40
2018-05-17T07:24:47.145Z,92.10
2018-05-17T07:27:21.221Z,92.40
2018-05-17T07:29:50.327Z,93.10
2018-05-17T07:32:23.162Z,91.70
2018-05-17T07:34:51.921Z,91.70
2018-05-17T07:37:28.783Z,92.00
2018-05-17T07:39:58.469Z,92.00
2018-05-17T07:43:57.807Z,92.00
2018-05-17T07:46:30.131Z,93.20
2018-05-17T07:48:58.910Z,92.40
2018-05-17T07:51:35.567Z,91.70
2018-05-17T07:54:04.406Z,91.60
2018-05-17T07:56:36.233Z,91.80
2018-05-17T07:59:06.364Z,90.90
2018-05-17T08:01:38.623Z,90.70
2018-05-17T08:04:07.455Z,90.50
2018-05-17T08:06:39.713Z,90.90
2018-05-17T08:09:09.294Z,90.70
2018-05-17T08:11:41.656Z,90.70
2018-05-17T08:14:11.730Z,91.00
2018-05-17T08:16:48.302Z,90.20
2018-05-17T08:19:17.108Z,91.00
2018-05-17T08:21:46.950Z,91.50
2018-05-17T08:24:15.750Z,91.40
2018-05-17T08:26:52.505Z,91.40
2018-05-17T08:29:21.578Z,91.30
2018-05-17T08:31:52.150Z,91.30
2018-05-17T08:34:20.960Z,91.70
2018-05-17T08:36:57.929Z,91.20
2018-05-17T08:39:26.785Z,91.20
2018-05-17T08:41:56.048Z,90.70
2018-05-17T08:44:25.263Z,90.10
2018-05-17T08:47:01.721Z,89.00
2018-05-17T08:49:30.476Z,91.10
2018-05-17T08:52:03.345Z,88.70
2018-05-17T08:54:33.204Z,90.40
2018-05-17T08:57:05.454Z,90.40
2018-05-17T08:59:34.633Z,90.20
2018-05-17T09:02:07.950Z,87.20
2018-05-17T09:04:36.796Z,87.20
2018-05-17T09:07:14.348Z,85.10
2018-05-17T09:09:43.226Z,85.10
2018-05-17T09:12:13.952Z,85.00
2018-05-17T09:14:43.075Z,84.90
2018-05-17T09:17:19.282Z,88.10
2018-05-17T09:19:48.861Z,82.30
2018-05-17T09:22:18.244Z,82.20
2018-05-17T09:24:47.112Z,79.50
2018-05-17T09:27:23.580Z,78.40
2018-05-17T09:29:52.672Z,80.60
2018-05-17T09:32:22.017Z,79.40
2018-05-17T09:34:50.820Z,77.30
2018-05-17T09:37:27.411Z,79.90
2018-05-17T09:39:57.081Z,77.00
2018-05-17T09:42:26.553Z,77.00
2018-05-17T09:44:55.384Z,80.40
2018-05-17T09:47:31.498Z,77.00
2018-05-17T09:50:00.296Z,84.50
2018-05-17T09:52:30.995Z,78.50
2018-05-17T09:54:59.973Z,75.30
2018-05-17T09:57:36.657Z,76.70
2018-05-17T10:00:05.916Z,73.60
2018-05-17T10:02:35.948Z,72.40
2018-05-17T10:05:05.872Z,74.70
2018-05-17T10:07:39.121Z,74.40
2018-05-17T10:10:08.009Z,71.00
2018-05-17T10:12:44.256Z,68.30
2018-05-17T10:15:13.278Z,70.00
2018-05-17T10:17:45.633Z,72.50
2018-05-17T10:20:14.497Z,73.40
2018-05-17T10:22:46.665Z,78.60
2018-05-17T10:25:15.473Z,70.90
2018-05-17T10:27:52.120Z,72.40
2018-05-17T10:32:53.738Z,72.40
2018-05-17T10:35:23.150Z,67.60
2018-05-17T10:37:56.421Z,70.20
2018-05-17T10:40:26.012Z,65.60
2018-05-17T10:42:55.599Z,65.60
2018-05-17T10:45:24.405Z,70.50
2018-05-17T10:48:01.059Z,68.20
2018-05-17T10:50:30.136Z,64.50
2018-05-17T10:53:02.671Z,58.60
2018-05-17T10:55:31.484Z,54.30
2018-05-17T10:58:03.785Z,59.20
2018-05-17T11:00:32.563Z,63.20
2018-05-17T11:03:06.380Z,60.20
2018-05-17T11:05:36.321Z,67.10
2018-05-17T11:08:12.378Z,67.00
2018-05-17T11:10:41.396Z,57.60
2018-05-17T11:13:13.932Z,57.30
2018-05-17T11:15:42.737Z,57.10
2018-05-17T11:18:15.057Z,58.50
2018-05-17T11:20:44.656Z,59.40
2018-05-17T11:23:17.323Z,64.40
2018-05-17T11:25:47.254Z,58.30
2018-05-17T11:28:20.060Z,54.90
2018-05-17T11:30:49.715Z,54.90
2018-05-17T11:33:22.663Z,56.30
2018-05-17T11:38:14.325Z,58.70
2018-05-17T11:40:43.458Z,64.60
2018-05-17T11:43:13.296Z,63.10
2018-05-17T11:45:42.376Z,63.30
2018-05-17T11:48:12.249Z,52.40
2018-05-17T11:50:41.392Z,52.40
2018-05-17T11:53:10.990Z,60.20
2018-05-17T11:55:40.438Z,60.30
2018-05-17T11:58:09.406Z,55.90
2018-05-17T12:00:38.393Z,62.10
2018-05-17T12:03:07.479Z,51.00
2018-05-17T12:05:36.733Z,56.60
2018-05-17T12:08:05.638Z,57.30
2018-05-17T12:10:38.697Z,51.80
2018-05-17T12:13:07.599Z,52.10
2018-05-17T12:15:43.865Z,51.30
2018-05-17T12:18:12.980Z,51.80
2018-05-17T12:20:45.363Z,47.90
2018-05-17T12:23:14.227Z,48.50
2018-05-17T12:25:47.496Z,50.20
2018-05-17T12:28:16.408Z,48.30
2018-05-17T12:30:53.432Z,50.80
2018-05-17T12:33:22.290Z,50.20
2018-05-17T12:35:53.031Z,48.70
2018-05-17T12:38:22.903Z,49.30
2018-05-17T12:40:58.816Z,49.30
2018-05-17T12:43:28.405Z,48.80
2018-05-17T12:45:58.221Z,48.60
2018-05-17T12:48:27.139Z,48.70
2018-05-17T12:51:04.358Z,55.90
2018-05-17T12:53:33.609Z,55.90
2018-05-17T12:56:04.423Z,47.50
2018-05-17T12:58:33.502Z,49.50
2018-05-17T13:01:07.443Z,52.30
2018-05-17T13:03:36.290Z,53.70
2018-05-17T13:06:13.239Z,51.70
2018-05-17T13:08:42.315Z,51.90
2018-05-17T13:11:12.923Z,51.20
2018-05-17T13:13:41.779Z,52.60
2018-05-17T13:16:19.485Z,57.90
2018-05-17T13:18:49.049Z,48.60
2018-05-17T13:21:17.879Z,48.60
2018-05-17T13:23:47.061Z,49.20
2018-05-17T13:26:19.860Z,47.70
2018-05-17T13:28:49.484Z,46.30
2018-05-17T13:31:22.079Z,46.30
2018-05-17T13:33:50.907Z,45.60
2018-05-17T13:36:27.006Z,45.00
2018-05-17T13:38:56.049Z,46.10
2018-05-17T13:41:26.528Z,45.10
2018-05-17T13:43:56.206Z,45.90
2018-05-17T13:46:32.263Z,45.90
2018-05-17T13:49:01.233Z,49.70
2018-05-17T13:51:31.933Z,47.20
2018-05-17T13:54:01.061Z,47.10
2018-05-17T13:56:33.208Z,51.10
2018-05-17T13:59:02.065Z,50.60
2018-05-17T14:01:38.864Z,44.90
2018-05-17T14:04:07.751Z,44.90
2018-05-17T14:06:38.514Z,45.00
2018-05-17T14:09:07.998Z,44.70
2018-05-17T14:15:12.327Z,47.80
2018-05-17T14:17:44.556Z,43.80
2018-05-17T14:20:13.530Z,46.40
2018-05-17T14:22:50.151Z,42.90
2018-05-17T14:25:19.764Z,44.40
2018-05-17T14:27:49.457Z,44.40
2018-05-17T14:30:19.157Z,46.30
2018-05-17T14:32:56.160Z,45.60
2018-05-17T14:35:25.305Z,45.50
2018-05-17T14:37:54.542Z,43.20
2018-05-17T14:40:24.153Z,45.50
2018-05-17T14:42:57.833Z,46.30
2018-05-17T14:45:27.494Z,48.30
2018-05-17T14:48:00.172Z,48.20
2018-05-17T14:50:29.280Z,47.50
2018-05-17T14:53:02.746Z,44.70
2018-05-17T14:55:31.586Z,44.80
2018-05-17T14:58:07.897Z,45.90
2018-05-17T15:00:36.670Z,46.10
2018-05-17T15:03:10.012Z,45.60
2018-05-17T15:05:38.920Z,45.60
2018-05-17T15:08:12.272Z,45.60
2018-05-17T15:10:41.121Z,44.50
2018-05-17T15:13:14.833Z,45.00
2018-05-17T15:15:43.789Z,45.10
2018-05-17T15:18:19.699Z,43.90
2018-05-17T15:20:49.202Z,42.70
2018-05-17T15:23:19.244Z,42.50
2018-05-17T15:25:48.384Z,43.60
2018-05-17T15:28:25.592Z,45.10
2018-05-17T15:30:54.594Z,45.60
2018-05-17T15:33:26.342Z,45.50
2018-05-17T15:35:56.536Z,43.60
2018-05-17T15:38:26.172Z,44.80
2018-05-17T15:40:54.933Z,44.80
2018-05-17T15:43:31.309Z,43.30
2018-05-17T15:46:01.851Z,44.00
2018-05-17T15:48:30.847Z,44.00
2018-05-17T15:51:00.517Z,45.70
2018-05-17T15:53:32.078Z,47.00
2018-05-17T15:56:01.150Z,47.00
2018-05-17T15:58:37.699Z,49.20
2018-05-17T16:01:06.571Z,48.00
2018-05-17T16:03:39.165Z,47.70
2018-05-17T16:06:08.334Z,47.10
2018-05-17T16:08:41.921Z,47.60
2018-05-17T16:11:11.558Z,49.80
2018-05-17T16:13:42.297Z,49.80
2018-05-17T16:16:11.143Z,50.00
2018-05-17T16:18:45.720Z,50.60
2018-05-17T16:21:14.598Z,50.10
2018-05-17T16:23:52.237Z,51.00
2018-05-17T16:26:22.112Z,52.50
2018-05-17T16:28:51.583Z,52.50
2018-05-17T16:31:20.800Z,54.20
2018-05-17T16:33:58.338Z,53.00
2018-05-17T16:36:27.234Z,54.80
2018-05-17T16:38:59.987Z,53.20
2018-05-17T16:41:28.948Z,53.40
2018-05-17T16:44:00.732Z,55.00
2018-05-17T16:46:29.595Z,55.00
2018-05-17T16:49:06.437Z,53.20
2018-05-17T16:51:36.312Z,53.90
2018-05-17T16:54:06.156Z,53.70
2018-05-17T16:56:35.083Z,52.40
2018-05-17T16:59:11.373Z,52.80
2018-05-17T17:01:40.249Z,54.70
2018-05-17T17:04:12.971Z,56.80
2018-05-17T17:06:42.175Z,55.70
2018-05-17T17:09:18.504Z,56.40
2018-05-17T17:11:47.405Z,57.80
2018-05-17T17:14:17.115Z,57.50
2018-05-17T17:16:45.924Z,59.30
2018-05-17T17:19:19.149Z,58.00
2018-05-17T17:21:48.014Z,62.80
2018-05-17T17:24:24.957Z,61.40
2018-05-17T17:26:54.334Z,61.50
2018-05-17T17:29:24.359Z,60.80
2018-05-17T17:31:53.229Z,60.80
2018-05-17T17:34:30.305Z,62.60
2018-05-17T17:36:59.133Z,61.40
2018-05-17T17:39:29.450Z,63.00
2018-05-17T17:41:58.594Z,65.40
2018-05-17T17:44:30.350Z,64.70
2018-05-17T17:46:59.965Z,66.40
2018-05-17T17:49:36.746Z,66.40
2018-05-17T17:52:05.569Z,68.40
2018-05-17T17:54:38.125Z,66.60
2018-05-17T17:57:07.270Z,65.30
2018-05-17T17:59:39.210Z,65.70
2018-05-17T18:02:08.015Z,67.00
2018-05-17T18:04:40.742Z,68.40
2018-05-17T18:07:10.353Z,66.10
2018-05-17T18:09:42.779Z,65.00
2018-05-17T18:12:12.099Z,68.60
2018-05-17T18:14:45.406Z,70.30
2018-05-17T18:17:15.110Z,69.80
2018-05-17T18:19:51.547Z,69.30
2018-05-17T18:22:20.432Z,69.70
2018-05-17T18:24:56.721Z,68.50
2018-05-17T18:27:25.781Z,71.80
2018-05-17T18:29:54.720Z,69.80
2018-05-17T18:32:23.854Z,71.70
2018-05-17T18:35:00.305Z,70.90
2018-05-17T18:37:29.153Z,71.10
2018-05-17T18:40:00.575Z,71.70
2018-05-17T18:42:29.933Z,71.70
2018-05-17T18:45:05.996Z,72.60
2018-05-17T18:47:35.309Z,72.10
2018-05-17T18:50:07.355Z,74.30
2018-05-17T18:52:36.224Z,75.20
2018-05-17T18:55:09.785Z,75.00
2018-05-17T18:57:38.698Z,75.00
2018-05-17T19:00:16.381Z,76.30
2018-05-17T19:02:45.292Z,76.20
2018-05-17T19:05:15.125Z,75.70
2018-05-17T19:07:45.417Z,75.70
2018-05-17T19:10:16.943Z,76.80
2018-05-17T19:12:45.777Z,76.80
2018-05-17T19:15:22.545Z,78.20
2018-05-17T19:17:52.202Z,78.00
2018-05-17T19:20:22.752Z,78.00
2018-05-17T19:22:51.957Z,77.30
2018-05-17T19:25:28.436Z,78.70
2018-05-17T19:27:58.142Z,80.10
2018-05-17T19:30:28.077Z,79.50
2018-05-17T19:32:57.669Z,79.00
2018-05-17T19:35:34.564Z,78.50
2018-05-17T19:38:03.453Z,78.50
2018-05-17T19:40:32.624Z,79.20
2018-05-17T19:43:02.881Z,80.60
2018-05-17T19:45:34.869Z,79.90
2018-05-17T19:48:03.880Z,79.80
2018-05-17T19:50:36.576Z,80.70
2018-05-17T19:53:05.542Z,81.80
2018-05-17T19:55:42.056Z,82.10
2018-05-17T19:58:11.340Z,82.60
2018-05-17T20:00:41.076Z,83.10
2018-05-17T20:03:09.989Z,83.00
2018-05-17T20:05:44.221Z,84.80
2018-05-17T20:08:13.125Z,83.70
2018-05-17T20:10:49.025Z,83.30
2018-05-17T20:13:18.124Z,84.00
2018-05-17T20:15:48.658Z,83.90
2018-05-17T20:18:17.560Z,83.80
2018-05-17T20:20:52.178Z,84.60
2018-05-17T20:23:21.017Z,84.30
2018-05-17T20:25:56.954Z,85.10
2018-05-17T20:28:26.111Z,84.80
2018-05-17T20:30:58.503Z,85.20
2018-05-17T20:33:27.453Z,86.40
2018-05-17T20:36:00.588Z,85.70
2018-05-17T20:38:29.392Z,85.40
2018-05-17T20:41:01.703Z,86.70
2018-05-17T20:43:31.049Z,86.80
2018-05-17T20:46:07.099Z,88.50
2018-05-17T20:48:36.257Z,88.30
2018-05-17T20:51:06.648Z,87.60
2018-05-17T20:53:35.552Z,87.10
2018-05-17T20:56:12.891Z,87.30
2018-05-17T20:58:41.890Z,88.00
2018-05-17T21:01:14.519Z,88.30
2018-05-17T21:03:44.163Z,87.80
2018-05-17T21:06:16.081Z,87.80
2018-05-17T21:08:45.115Z,88.70
2018-05-17T21:11:21.171Z,89.30
2018-05-17T21:13:50.447Z,88.60
2018-05-17T21:16:20.511Z,89.60
2018-05-17T21:18:50.205Z,89.60
2018-05-17T21:21:23.506Z,89.60
2018-05-17T21:23:52.411Z,89.60
2018-05-17T21:26:24.470Z,89.60
2018-05-17T21:28:53.663Z,90.10
2018-05-17T21:31:33.013Z,90.20
2018-05-17T21:34:03.638Z,90.40
2018-05-17T21:36:32.546Z,90.40
2018-05-17T21:39:01.646Z,90.40
2018-05-17T21:41:31.319Z,90.00
2018-05-17T21:44:00.312Z,90.30
2018-05-17T21:46:36.780Z,90.30
2018-05-17T21:49:06.064Z,90.60
2018-05-17T21:51:35.905Z,90.90
2018-05-17T21:54:06.043Z,91.00
2018-05-17T21:56:38.090Z,90.90
2018-05-17T21:59:07.048Z,91.00
2018-05-17T22:01:40.944Z,90.90
2018-05-17T22:04:12.147Z,91.20
2018-05-17T22:06:44.680Z,91.40
2018-05-17T22:09:17.790Z,91.40
2018-05-17T22:11:47.173Z,91.40
2018-05-17T22:14:17.098Z,91.80
2018-05-17T22:16:48.631Z,91.80
2018-05-17T22:19:18.946Z,91.60
2018-05-17T22:21:53.395Z,91.70
2018-05-17T22:24:29.240Z,91.70
2018-05-17T22:26:58.720Z,91.80
2018-05-17T22:29:27.856Z,91.60
2018-05-17T22:31:56.931Z,91.90
2018-05-17T22:34:27.235Z,91.90
2018-05-17T22:36:59.987Z,91.70
2018-05-17T22:39:29.562Z,91.90
2018-05-17T22:42:01.527Z,91.90
2018-05-17T22:44:30.371Z,92.10
2018-05-17T22:47:03.593Z,92.20
2018-05-17T22:49:32.621Z,92.30
2018-05-17T22:52:10.328Z,92.10
2018-05-17T22:54:39.927Z,92.20
2018-05-17T22:57:13.366Z,92.20
2018-05-17T22:59:42.294Z,92.20
2018-05-17T23:02:14.463Z,92.10
2018-05-17T23:04:43.890Z,92.30
2018-05-17T23:07:17.408Z,92.50
2018-05-17T23:09:46.283Z,92.50
2018-05-17T23:12:20.320Z,92.60
2018-05-17T23:14:49.248Z,92.60
2018-05-17T23:17:20.645Z,92.60
2018-05-17T23:19:50.276Z,92.60
2018-05-17T23:22:31.097Z,92.70
2018-05-17T23:25:00.666Z,92.80
2018-05-17T23:27:29.857Z,92.80
2018-05-17T23:29:58.688Z,92.70
2018-05-17T23:32:28.297Z,92.80
2018-05-17T23:34:58.122Z,92.70
2018-05-17T23:37:29.038Z,92.60
2018-05-17T23:40:06.013Z,92.50
2018-05-17T23:42:35.046Z,92.40
2018-05-17T23:45:04.365Z,92.50
2018-05-17T23:47:33.493Z,92.50
2018-05-17T23:50:02.255Z,92.50
2018-05-17T23:52:38.353Z,92.50
2018-05-17T23:55:07.161Z,92.60
2018-05-17T23:57:37.143Z,92.60
